createdAt,value
2019-05-15T00:03:01.474Z,6.32
2019-05-15T00:06:08.242Z,6.25
2019-05-15T00:09:11.224Z,6.23
2019-05-15T00:12:15.164Z,6.30
2019-05-15T00:15:19.115Z,6.26
2019-05-15T00:18:23.020Z,6.20
2019-05-15T00:21:28.820Z,6.07
2019-05-15T00:24:32.581Z,5.95
2019-05-15T00:27:38.678Z,5.80
2019-05-15T00:30:42.157Z,5.64
2019-05-15T00:33:48.130Z,5.66
2019-05-15T00:36:51.778Z,5.64
2019-05-15T00:39:55.871Z,5.59
2019-05-15T00:42:59.961Z,5.48
2019-05-15T00:46:04.121Z,5.47
2019-05-15T00:49:08.804Z,5.39
2019-05-15T00:52:12.983Z,5.55
2019-05-15T00:55:19.131Z,5.53
2019-05-15T00:58:22.858Z,5.45
2019-05-15T01:01:28.701Z,5.40
2019-05-15T01:04:33.162Z,5.41
2019-05-15T01:07:39.243Z,5.35
2019-05-15T01:10:43.127Z,5.33
2019-05-15T01:13:48.141Z,5.24
2019-05-15T01:16:52.319Z,5.12
2019-05-15T01:19:56.228Z,5.13
2019-05-15T01:23:01.070Z,5.14
2019-05-15T01:26:05.370Z,5.10
2019-05-15T01:29:09.472Z,5.07
2019-05-15T01:32:13.693Z,5.06
2019-05-15T01:35:18.133Z,5.08
2019-05-15T01:38:22.032Z,5.09
2019-05-15T01:41:28.046Z,5.11
2019-05-15T01:44:31.616Z,5.03
2019-05-15T01:47:35.937Z,4.96
2019-05-15T01:50:39.742Z,4.90
2019-05-15T01:53:43.712Z,4.86
2019-05-15T01:56:49.483Z,4.86
2019-05-15T01:59:57.389Z,4.85
2019-05-15T02:02:59.364Z,4.84
2019-05-15T02:06:03.234Z,4.79
2019-05-15T02:09:08.492Z,4.79
2019-05-15T02:12:12.311Z,4.73
2019-05-15T02:15:18.966Z,4.69
2019-05-15T02:18:23.123Z,4.66
2019-05-15T02:21:28.861Z,4.64
2019-05-15T02:24:33.079Z,4.62
2019-05-15T02:27:39.275Z,4.61
2019-05-15T02:30:42.798Z,4.59
2019-05-15T02:33:49.601Z,4.57
2019-05-15T02:36:52.605Z,4.52
2019-05-15T02:39:58.990Z,4.50
2019-05-15T02:43:02.738Z,4.47
2019-05-15T02:46:09.947Z,4.41
2019-05-15T02:49:12.442Z,4.40
2019-05-15T02:52:19.641Z,4.41
2019-05-15T02:55:22.472Z,4.40
2019-05-15T02:58:29.179Z,4.27
2019-05-15T03:01:32.482Z,4.29
2019-05-15T03:04:39.807Z,4.28
2019-05-15T03:07:42.679Z,4.28
2019-05-15T03:10:49.387Z,4.30
2019-05-15T03:13:52.258Z,4.26
2019-05-15T03:16:59.332Z,4.24
2019-05-15T03:20:02.385Z,4.09
2019-05-15T03:23:09.579Z,3.96
2019-05-15T03:26:11.957Z,3.93
2019-05-15T03:29:15.887Z,3.92
2019-05-15T03:32:32.243Z,3.92
2019-05-15T03:35:25.633Z,4.01
2019-05-15T03:38:30.223Z,4.04
2019-05-15T03:41:34.642Z,4.00
2019-05-15T03:44:39.518Z,3.90
2019-05-15T03:47:43.561Z,3.90
2019-05-15T03:50:48.911Z,3.96
2019-05-15T03:53:52.993Z,3.98
2019-05-15T03:56:58.494Z,4.02
2019-05-15T04:00:02.633Z,4.02
2019-05-15T04:03:10.281Z,4.08
2019-05-15T04:06:12.674Z,4.14
2019-05-15T04:09:18.943Z,4.22
2019-05-15T04:12:22.651Z,4.27
2019-05-15T04:15:30.205Z,4.29
2019-05-15T04:18:33.083Z,4.30
2019-05-15T04:21:41.383Z,4.32
2019-05-15T04:24:43.893Z,4.39
2019-05-15T04:27:49.570Z,4.49
2019-05-15T04:30:53.423Z,4.59
2019-05-15T04:33:59.342Z,4.68
2019-05-15T04:37:03.350Z,4.78
2019-05-15T04:40:09.455Z,4.80
2019-05-15T04:43:13.936Z,4.90
2019-05-15T04:46:19.794Z,5.01
2019-05-15T04:49:24.785Z,5.12
2019-05-15T04:52:30.503Z,5.25
2019-05-15T04:55:35.185Z,5.37
2019-05-15T04:58:39.960Z,5.48
2019-05-15T05:01:44.069Z,5.62
2019-05-15T05:04:49.356Z,5.80
2019-05-15T05:07:53.832Z,5.88
2019-05-15T05:10:59.117Z,6.01
2019-05-15T05:14:08.488Z,6.12
2019-05-15T05:17:11.866Z,6.20
2019-05-15T05:20:19.111Z,6.32
2019-05-15T05:23:22.983Z,6.46
2019-05-15T05:26:29.171Z,6.61
2019-05-15T05:29:32.621Z,6.78
2019-05-15T05:32:39.040Z,6.98
2019-05-15T05:35:43.226Z,7.10
2019-05-15T05:38:49.380Z,7.28
2019-05-15T05:41:53.307Z,7.44
2019-05-15T05:44:58.247Z,7.60
2019-05-15T05:48:02.615Z,7.80
2019-05-15T05:51:08.973Z,8.11
2019-05-15T05:54:12.523Z,8.16
2019-05-15T05:57:16.319Z,8.27
2019-05-15T06:00:24.089Z,8.43
2019-05-15T06:03:28.314Z,8.59
2019-05-15T06:06:32.386Z,8.86
2019-05-15T06:09:38.035Z,9.17
2019-05-15T06:12:42.423Z,9.31
2019-05-15T06:15:48.875Z,9.42
2019-05-15T06:18:52.541Z,9.64
2019-05-15T06:22:00.711Z,10.00
2019-05-15T06:25:05.044Z,10.29
2019-05-15T06:28:09.199Z,10.49
2019-05-15T06:31:13.582Z,10.67
2019-05-15T06:34:18.015Z,10.91
2019-05-15T06:37:22.039Z,11.18
2019-05-15T06:40:28.735Z,11.42
2019-05-15T06:43:31.699Z,11.63
2019-05-15T06:46:35.597Z,11.81
2019-05-15T06:49:39.470Z,12.12
2019-05-15T06:52:43.297Z,12.23
2019-05-15T06:55:48.623Z,12.33
2019-05-15T06:58:52.780Z,12.44
2019-05-15T07:01:59.414Z,12.42
2019-05-15T07:05:02.314Z,12.74
2019-05-15T07:08:08.887Z,12.80
2019-05-15T07:11:11.910Z,12.85
2019-05-15T07:14:18.043Z,13.04
2019-05-15T07:17:21.480Z,13.32
2019-05-15T07:20:28.344Z,13.38
2019-05-15T07:23:31.224Z,13.55
2019-05-15T07:26:35.084Z,13.55
2019-05-15T07:29:41.328Z,13.63
2019-05-15T07:32:45.365Z,13.68
2019-05-15T07:35:49.748Z,13.68
2019-05-15T07:38:53.779Z,13.71
2019-05-15T07:41:57.881Z,13.69
2019-05-15T07:45:01.841Z,13.74
2019-05-15T07:48:05.863Z,14.01
2019-05-15T07:51:11.680Z,14.08
2019-05-15T07:54:15.338Z,14.10
2019-05-15T07:57:19.563Z,14.02
2019-05-15T08:00:24.111Z,14.16
2019-05-15T08:03:29.205Z,14.66
2019-05-15T08:06:33.438Z,14.77
2019-05-15T08:09:39.079Z,14.82
2019-05-15T08:12:42.813Z,14.92
2019-05-15T08:15:48.847Z,15.00
2019-05-15T08:18:52.310Z,15.26
2019-05-15T08:21:58.190Z,15.50
2019-05-15T08:25:01.862Z,15.52
2019-05-15T08:28:08.352Z,15.44
2019-05-15T08:31:11.493Z,15.81
2019-05-15T08:34:16.404Z,15.30
2019-05-15T08:37:20.766Z,15.63
2019-05-15T08:40:24.660Z,15.66
2019-05-15T08:43:31.206Z,15.62
2019-05-15T08:46:34.291Z,15.74
2019-05-15T08:49:40.895Z,15.81
2019-05-15T08:52:43.967Z,15.82
2019-05-15T08:55:48.176Z,15.97
2019-05-15T08:58:52.041Z,16.14
2019-05-15T09:01:58.165Z,16.32
2019-05-15T09:05:01.673Z,16.36
2019-05-15T09:08:05.584Z,16.35
2019-05-15T09:11:09.755Z,16.45
2019-05-15T09:14:15.459Z,16.46
2019-05-15T09:17:19.569Z,16.79
2019-05-15T09:20:23.596Z,16.81
2019-05-15T09:23:28.893Z,16.58
2019-05-15T09:26:40.126Z,16.74
2019-05-15T09:29:40.102Z,17.01
2019-05-15T09:32:44.113Z,17.27
2019-05-15T09:35:49.471Z,16.94
2019-05-15T09:39:00.145Z,16.87
2019-05-15T09:42:08.479Z,17.10
2019-05-15T09:45:12.932Z,17.12
2019-05-15T09:48:19.616Z,17.00
2019-05-15T09:51:22.537Z,17.05
2019-05-15T09:54:29.062Z,16.76
2019-05-15T09:57:32.565Z,16.44
2019-05-15T10:00:38.634Z,16.53
2019-05-15T10:03:44.560Z,16.80
2019-05-15T10:06:48.705Z,16.68
2019-05-15T10:09:52.785Z,16.47
2019-05-15T10:12:59.916Z,16.41
2019-05-15T10:16:04.136Z,16.63
2019-05-15T10:19:08.939Z,16.27
2019-05-15T10:22:13.262Z,16.33
2019-05-15T10:25:19.011Z,16.19
2019-05-15T10:28:22.890Z,16.27
2019-05-15T10:31:28.289Z,16.68
2019-05-15T10:34:32.505Z,16.81
2019-05-15T10:37:38.832Z,16.86
2019-05-15T10:40:58.548Z,17.06
2019-05-15T10:43:55.978Z,17.34
2019-05-15T10:46:53.333Z,17.16
2019-05-15T10:49:57.322Z,16.93
2019-05-15T10:53:01.182Z,17.08
2019-05-15T10:56:05.161Z,17.39
2019-05-15T10:59:08.964Z,17.36
2019-05-15T11:02:12.935Z,16.97
2019-05-15T11:05:17.983Z,16.90
2019-05-15T11:08:22.142Z,17.03
2019-05-15T11:11:25.979Z,17.04
2019-05-15T11:14:29.966Z,17.19
2019-05-15T11:17:33.903Z,17.10
2019-05-15T11:20:40.934Z,17.18
2019-05-15T11:23:43.352Z,17.06
2019-05-15T11:26:49.959Z,17.03
2019-05-15T11:29:53.004Z,17.16
2019-05-15T11:32:58.721Z,17.41
2019-05-15T11:36:06.000Z,17.10
2019-05-15T11:39:08.537Z,17.25
2019-05-15T11:42:12.445Z,17.15
2019-05-15T11:45:18.521Z,16.91
2019-05-15T11:48:22.364Z,16.70
2019-05-15T11:51:28.575Z,16.74
2019-05-15T11:54:31.917Z,16.94
2019-05-15T11:57:42.619Z,16.76
2019-05-15T12:00:41.520Z,16.89
2019-05-15T12:03:45.381Z,17.08
2019-05-15T12:06:58.920Z,17.10
2019-05-15T12:09:55.006Z,16.81
2019-05-15T12:12:59.654Z,17.02
2019-05-15T12:16:03.557Z,17.00
2019-05-15T12:22:13.189Z,16.93
2019-05-15T12:25:17.191Z,16.79
2019-05-15T12:28:21.080Z,16.78
2019-05-15T12:31:24.969Z,16.95
2019-05-15T12:34:29.067Z,17.03
2019-05-15T12:37:32.881Z,17.12
2019-05-15T13:02:18.577Z,16.93
2019-05-15T13:05:21.789Z,16.82
2019-05-15T13:08:25.717Z,17.16
2019-05-15T13:11:29.695Z,17.33
2019-05-15T13:14:33.748Z,17.66
2019-05-15T13:17:38.801Z,17.76
2019-05-15T13:20:42.939Z,17.53
2019-05-15T13:23:48.106Z,17.27
2019-05-15T13:26:52.158Z,17.58
2019-05-15T13:29:58.279Z,17.62
2019-05-15T13:33:01.711Z,17.52
2019-05-15T13:36:05.649Z,17.48
2019-05-15T13:39:09.597Z,17.54
2019-05-15T13:42:13.501Z,17.44
2019-05-15T13:45:18.408Z,17.36
2019-05-15T13:48:22.313Z,17.28
2019-05-15T13:51:28.830Z,17.30
2019-05-15T13:54:31.719Z,17.36
2019-05-15T13:57:38.077Z,17.27
2019-05-15T14:00:41.372Z,17.44
2019-05-15T14:03:45.285Z,17.45
2019-05-15T14:06:49.081Z,17.54
2019-05-15T14:09:52.943Z,17.58
2019-05-15T14:12:58.372Z,17.30
2019-05-15T14:16:02.342Z,17.28
2019-05-15T14:19:08.304Z,17.63
2019-05-15T14:22:12.039Z,17.36
2019-05-15T14:25:18.134Z,17.45
2019-05-15T14:28:21.795Z,17.52
2019-05-15T14:31:27.892Z,17.60
2019-05-15T14:34:31.201Z,17.91
2019-05-15T14:37:35.097Z,18.07
2019-05-15T14:40:39.057Z,17.97
2019-05-15T14:43:42.950Z,18.12
2019-05-15T14:46:50.578Z,18.37
2019-05-15T14:49:52.486Z,18.65
2019-05-15T14:52:58.428Z,18.52
2019-05-15T14:56:02.091Z,18.50
2019-05-15T14:59:08.500Z,18.98
2019-05-15T15:02:11.991Z,18.96
2019-05-15T15:05:15.942Z,19.68
2019-05-15T15:08:25.288Z,20.07
2019-05-15T15:11:28.497Z,20.20
2019-05-15T15:14:32.621Z,20.50
2019-05-15T15:17:38.671Z,20.80
2019-05-15T15:20:42.179Z,20.90
2019-05-15T15:23:48.117Z,21.07
2019-05-15T15:26:51.660Z,20.46
2019-05-15T15:29:55.538Z,20.10
2019-05-15T15:33:01.188Z,20.23
2019-05-15T15:36:05.071Z,20.35
2019-05-15T15:39:09.062Z,20.26
2019-05-15T15:42:12.899Z,20.36
2019-05-15T15:45:19.272Z,20.54
2019-05-15T15:48:22.859Z,20.63
2019-05-15T15:51:28.574Z,20.37
2019-05-15T15:54:32.409Z,20.69
2019-05-15T15:57:36.286Z,20.96
2019-05-15T16:00:40.232Z,20.56
2019-05-15T16:03:44.131Z,19.99
2019-05-15T16:06:48.458Z,20.19
2019-05-15T16:09:52.299Z,20.05
2019-05-15T16:12:58.216Z,19.68
2019-05-15T16:16:02.006Z,19.43
2019-05-15T16:19:05.848Z,18.60
2019-05-15T16:22:09.772Z,18.61
2019-05-15T16:25:13.861Z,17.91
2019-05-15T16:28:18.487Z,17.45
2019-05-15T16:31:22.649Z,17.00
2019-05-15T16:34:28.376Z,16.91
2019-05-15T16:37:31.988Z,16.87
2019-05-15T16:40:38.121Z,16.80
2019-05-15T16:43:41.491Z,16.70
2019-05-15T16:46:47.995Z,16.48
2019-05-15T16:49:50.961Z,16.32
2019-05-15T16:52:54.913Z,16.32
2019-05-15T16:55:58.888Z,16.24
2019-05-15T16:59:03.429Z,16.29
2019-05-15T17:02:08.747Z,16.27
2019-05-15T17:05:12.909Z,16.01
2019-05-15T17:08:17.945Z,16.28
2019-05-15T17:11:22.125Z,15.98
2019-05-15T17:14:28.573Z,16.33
2019-05-15T17:17:31.551Z,15.90
2019-05-15T17:20:35.508Z,16.05
2019-05-15T17:23:39.344Z,15.96
2019-05-15T17:26:43.295Z,15.55
2019-05-15T17:29:49.059Z,15.46
2019-05-15T17:32:52.742Z,15.35
2019-05-15T17:35:58.048Z,15.24
2019-05-15T17:39:01.995Z,15.14
2019-05-15T17:42:05.898Z,15.08
2019-05-15T17:45:10.090Z,15.15
2019-05-15T17:48:14.011Z,15.16
2019-05-15T17:51:17.872Z,15.13
2019-05-15T17:54:21.759Z,15.09
2019-05-15T17:57:33.716Z,14.99
2019-05-15T18:00:39.386Z,14.95
2019-05-15T18:03:43.514Z,14.93
2019-05-15T18:06:48.398Z,14.84
2019-05-15T18:09:54.420Z,14.75
2019-05-15T18:12:58.745Z,14.66
2019-05-15T18:16:04.217Z,14.63
2019-05-15T18:19:45.404Z,14.49
2019-05-15T18:47:52.489Z,13.88
2019-05-15T18:57:13.017Z,13.58
2019-05-15T18:59:48.718Z,13.45
2019-05-15T19:03:22.624Z,13.36
2019-05-15T19:06:45.200Z,13.25
2019-05-15T19:10:00.477Z,13.22
2019-05-15T19:13:28.614Z,13.25
2019-05-15T19:17:09.854Z,13.26
2019-05-15T19:20:28.416Z,13.16
2019-05-15T19:23:50.726Z,13.41
2019-05-15T19:27:47.169Z,13.21
2019-05-15T19:30:58.349Z,13.06
2019-05-15T19:34:19.466Z,12.99
2019-05-15T19:38:09.908Z,12.89
2019-05-15T19:41:54.528Z,12.89
2019-05-15T19:44:59.031Z,12.73
2019-05-15T19:48:03.924Z,12.62
2019-05-15T19:51:09.154Z,12.48
2019-05-15T19:54:13.921Z,12.35
2019-05-15T19:57:18.803Z,12.26
2019-05-15T20:00:23.294Z,12.23
2019-05-15T20:03:28.479Z,12.19
2019-05-15T20:06:33.061Z,12.13
2019-05-15T20:09:38.377Z,12.08
2019-05-15T20:12:42.797Z,12.02
2019-05-15T20:15:48.558Z,11.92
2019-05-15T20:18:53.086Z,11.82
2019-05-15T20:21:58.323Z,11.73
2019-05-15T20:25:03.001Z,11.65
2019-05-15T20:28:08.413Z,11.58
2019-05-15T20:31:13.218Z,11.54
2019-05-15T20:34:17.796Z,11.44
2019-05-15T20:37:22.261Z,11.34
2019-05-15T20:40:28.157Z,11.30
2019-05-15T20:43:32.827Z,11.33
2019-05-15T20:46:39.210Z,11.24
2019-05-15T20:49:43.953Z,11.15
2019-05-15T20:52:49.175Z,11.04
2019-05-15T20:55:54.148Z,10.96
2019-05-15T20:58:59.002Z,10.87
2019-05-15T21:02:03.557Z,10.83
2019-05-15T21:05:09.044Z,10.84
2019-05-15T21:08:13.808Z,10.87
2019-05-15T21:11:18.414Z,10.83
2019-05-15T21:14:23.441Z,10.80
2019-05-15T21:17:28.280Z,10.80
2019-05-15T21:20:33.138Z,10.78
2019-05-15T21:23:38.770Z,10.72
2019-05-15T21:26:43.017Z,10.68
2019-05-15T21:29:49.052Z,10.63
2019-05-15T21:32:54.101Z,10.57
2019-05-15T21:35:58.975Z,10.54
2019-05-15T21:39:04.495Z,10.49
2019-05-15T21:42:08.998Z,10.51
2019-05-15T21:45:14.939Z,10.46
2019-05-15T21:48:19.047Z,10.37
2019-05-15T21:51:23.422Z,10.27
2019-05-15T21:54:28.195Z,10.20
2019-05-15T21:57:36.444Z,10.14
2019-05-15T22:00:42.149Z,10.09
2019-05-15T22:03:48.180Z,9.97
2019-05-15T22:06:52.578Z,9.92
2019-05-15T22:09:56.763Z,9.87
2019-05-15T22:13:01.002Z,9.86
2019-05-15T22:16:05.376Z,9.84
2019-05-15T22:19:10.663Z,9.83
2019-05-15T22:22:14.849Z,9.75
2019-05-15T22:25:19.448Z,9.71
2019-05-15T22:28:23.767Z,9.69
2019-05-15T22:31:28.015Z,9.65
2019-05-15T22:34:32.175Z,9.57
2019-05-15T22:37:38.686Z,9.49
2019-05-15T22:40:42.570Z,9.46
2019-05-15T22:43:48.490Z,9.42
2019-05-15T22:46:52.349Z,9.37
2019-05-15T22:49:56.276Z,9.39
2019-05-15T22:53:00.397Z,9.34
2019-05-15T22:56:04.475Z,9.29
2019-05-15T22:59:08.656Z,9.27
2019-05-15T23:02:13.058Z,9.21
2019-05-15T23:05:24.963Z,9.19
2019-05-15T23:08:22.788Z,9.13
2019-05-15T23:11:26.907Z,9.12
2019-05-15T23:14:30.838Z,9.07
2019-05-15T23:17:34.711Z,9.02
2019-05-15T23:20:38.905Z,8.98
2019-05-15T23:23:42.911Z,8.92
2019-05-15T23:26:47.773Z,8.86
2019-05-15T23:29:51.871Z,8.78
2019-05-15T23:32:58.082Z,8.72
2019-05-15T23:36:02.323Z,8.67
2019-05-15T23:39:07.838Z,8.65
2019-05-15T23:42:11.874Z,8.60
2019-05-15T23:45:17.896Z,8.60
2019-05-15T23:48:21.566Z,8.58
2019-05-15T23:51:27.810Z,8.58
2019-05-15T23:54:31.049Z,8.53
2019-05-15T23:57:34.895Z,8.49
